createdAt,value
2023-01-09T00:01:03.118Z,8.63
2023-01-09T00:03:35.170Z,8.35
2023-01-09T00:06:07.462Z,8.52
2023-01-09T00:08:39.720Z,9.05
2023-01-09T00:11:11.941Z,8.25
2023-01-09T00:13:44.136Z,8.85
2023-01-09T00:16:16.792Z,9.77
2023-01-09T00:18:48.860Z,9.17
2023-01-09T00:21:21.571Z,9.05
2023-01-09T00:23:54.614Z,9.32
2023-01-09T00:26:26.644Z,8.67
2023-01-09T00:28:58.777Z,8.52
2023-01-09T00:31:31.987Z,8.75
2023-01-09T00:34:07.396Z,8.40
2023-01-09T00:36:39.845Z,8.43
2023-01-09T00:39:11.884Z,7.80
2023-01-09T00:41:48.141Z,7.63
2023-01-09T00:44:42.608Z,8.00
2023-01-09T00:47:22.837Z,8.15
2023-01-09T00:49:58.632Z,9.70
2023-01-09T00:52:32.677Z,8.60
2023-01-09T00:55:06.027Z,7.80
2023-01-09T00:57:38.369Z,7.70
2023-01-09T01:00:12.317Z,7.53
2023-01-09T01:02:45.062Z,7.07
2023-01-09T01:05:35.809Z,7.20
2023-01-09T01:08:16.420Z,11.10
2023-01-09T01:10:49.696Z,8.40
2023-01-09T01:13:21.736Z,12.80
2023-01-09T01:15:53.874Z,16.77
2023-01-09T01:18:25.901Z,7.38
2023-01-09T01:20:58.045Z,6.75
2023-01-09T01:23:30.094Z,5.70
2023-01-09T01:26:13.851Z,5.90
2023-01-09T01:28:45.850Z,5.85
2023-01-09T01:31:19.801Z,6.13
2023-01-09T01:33:51.801Z,5.63
2023-01-09T01:36:26.529Z,6.80
2023-01-09T01:38:58.517Z,6.50
2023-01-09T01:41:30.624Z,5.70
2023-01-09T01:44:07.092Z,5.75
2023-01-09T01:46:39.179Z,6.50
2023-01-09T01:49:15.958Z,6.70
2023-01-09T01:51:51.848Z,7.00
2023-01-09T01:54:28.394Z,6.13
2023-01-09T01:57:03.599Z,7.15
2023-01-09T01:59:50.369Z,6.20
2023-01-09T02:02:28.346Z,5.85
2023-01-09T02:05:01.942Z,5.50
2023-01-09T02:07:35.060Z,6.18
2023-01-09T02:10:07.779Z,6.65
2023-01-09T02:12:39.892Z,5.87
2023-01-09T02:15:14.547Z,6.35
2023-01-09T02:18:08.828Z,6.03
2023-01-09T02:20:47.888Z,6.38
2023-01-09T02:23:46.437Z,6.65
2023-01-09T02:26:46.591Z,6.10
2023-01-09T02:29:37.954Z,6.43
2023-01-09T02:32:28.359Z,6.60
2023-01-09T02:35:18.265Z,6.15
2023-01-09T02:38:09.038Z,6.78
2023-01-09T02:40:55.747Z,7.07
2023-01-09T02:43:28.092Z,6.40
2023-01-09T02:46:00.393Z,6.90
2023-01-09T02:48:32.799Z,6.95
2023-01-09T02:51:14.508Z,6.80
2023-01-09T02:54:14.202Z,6.70
2023-01-09T02:57:15.297Z,6.38
2023-01-09T03:00:08.664Z,7.22
2023-01-09T03:02:52.748Z,8.38
2023-01-09T03:08:27.713Z,6.18
2023-01-09T03:11:06.747Z,6.28
2023-01-09T03:13:55.391Z,7.15
2023-01-09T03:16:32.349Z,6.05
2023-01-09T03:19:12.712Z,6.97
2023-01-09T03:21:46.502Z,6.85
2023-01-09T03:24:18.499Z,8.45
2023-01-09T03:26:51.858Z,8.30
2023-01-09T03:29:24.051Z,8.02
2023-01-09T03:31:56.323Z,6.15
2023-01-09T03:34:28.324Z,7.82
2023-01-09T03:37:00.314Z,6.72
2023-01-09T03:39:33.148Z,6.85
2023-01-09T03:42:05.358Z,6.75
2023-01-09T03:44:37.366Z,6.18
2023-01-09T03:47:10.181Z,7.25
2023-01-09T03:49:42.280Z,6.85
2023-01-09T03:52:14.658Z,6.10
2023-01-09T03:54:46.719Z,6.20
2023-01-09T03:57:18.753Z,6.65
2023-01-09T03:59:50.835Z,7.05
2023-01-09T04:02:22.817Z,7.03
2023-01-09T04:04:54.779Z,7.35
2023-01-09T04:07:27.124Z,6.95
2023-01-09T04:09:59.144Z,6.88
2023-01-09T04:12:31.356Z,7.65
2023-01-09T04:15:03.860Z,9.38
2023-01-09T04:17:36.149Z,7.15
2023-01-09T04:20:09.171Z,6.15
2023-01-09T04:22:41.182Z,6.70
2023-01-09T04:25:13.372Z,7.20
2023-01-09T04:27:46.849Z,6.47
2023-01-09T04:30:20.467Z,6.05
2023-01-09T04:32:52.717Z,4.93
2023-01-09T04:35:24.719Z,6.10
2023-01-09T04:37:56.809Z,5.47
2023-01-09T04:40:28.902Z,4.82
2023-01-09T04:43:01.162Z,4.93
2023-01-09T04:45:33.350Z,4.65
2023-01-09T04:48:06.613Z,4.22
2023-01-09T04:50:38.566Z,4.38
2023-01-09T04:53:11.003Z,3.03
2023-01-09T04:55:43.181Z,3.40
2023-01-09T04:58:15.168Z,3.40
2023-01-09T05:00:47.406Z,3.17
2023-01-09T05:03:19.438Z,2.90
2023-01-09T05:05:51.852Z,3.00
2023-01-09T05:08:24.105Z,3.50
2023-01-09T05:10:56.129Z,2.60
2023-01-09T05:13:28.611Z,3.58
2023-01-09T05:16:00.734Z,2.30
2023-01-09T05:18:33.056Z,3.03
2023-01-09T05:21:05.153Z,3.85
2023-01-09T05:23:37.278Z,3.05
2023-01-09T05:26:09.566Z,3.30
2023-01-09T05:28:41.631Z,3.13
2023-01-09T05:31:14.319Z,2.77
2023-01-09T05:33:46.531Z,2.33
2023-01-09T05:36:20.191Z,1.92
2023-01-09T05:38:52.253Z,1.63
2023-01-09T05:41:26.453Z,1.92
2023-01-09T05:43:58.994Z,1.98
2023-01-09T05:46:32.239Z,6.60
2023-01-09T05:49:04.292Z,6.93
2023-01-09T05:51:36.297Z,1.95
2023-01-09T05:54:08.381Z,2.55
2023-01-09T05:56:40.525Z,1.88
2023-01-09T05:59:13.159Z,0.90
2023-01-09T06:01:45.401Z,0.77
2023-01-09T06:04:17.480Z,1.30
2023-01-09T06:06:49.485Z,1.15
2023-01-09T06:09:21.530Z,1.25
2023-01-09T06:11:55.082Z,1.98
2023-01-09T06:16:59.912Z,0.88
2023-01-09T06:19:32.045Z,1.13
2023-01-09T06:22:04.272Z,1.30
2023-01-09T06:24:36.323Z,0.60
2023-01-09T06:27:08.537Z,0.40
2023-01-09T06:29:41.107Z,0.50
2023-01-09T06:32:13.513Z,0.50
2023-01-09T06:34:45.663Z,0.70
2023-01-09T06:37:17.721Z,0.70
2023-01-09T06:39:50.228Z,1.17
2023-01-09T06:42:22.386Z,1.15
2023-01-09T06:44:54.360Z,0.80
2023-01-09T06:47:26.585Z,0.82
2023-01-09T06:49:58.826Z,1.17
2023-01-09T06:52:31.463Z,1.00
2023-01-09T06:55:04.009Z,0.77
2023-01-09T06:57:36.218Z,0.63
2023-01-09T07:00:13.027Z,0.60
2023-01-09T07:02:47.037Z,0.40
2023-01-09T07:07:51.292Z,0.68
2023-01-09T07:10:24.241Z,0.40
2023-01-09T07:12:56.309Z,0.60
2023-01-09T07:15:28.840Z,0.60
2023-01-09T07:18:00.921Z,0.77
2023-01-09T07:20:33.328Z,0.80
2023-01-09T07:23:05.399Z,0.60
2023-01-09T07:25:37.573Z,0.60
2023-01-09T07:28:09.943Z,0.60
2023-01-09T07:30:42.055Z,0.40
2023-01-09T07:33:14.368Z,0.40
2023-01-09T07:35:47.090Z,0.47
2023-01-09T07:38:19.195Z,0.47
2023-01-09T07:40:51.255Z,0.32
2023-01-09T07:43:23.404Z,0.57
2023-01-09T07:45:56.208Z,0.40
2023-01-09T07:48:28.485Z,0.40
2023-01-09T07:51:01.148Z,0.40
2023-01-09T07:53:33.574Z,0.47
2023-01-09T07:56:06.016Z,0.57
2023-01-09T07:58:38.802Z,0.43
2023-01-09T08:01:11.470Z,0.60
2023-01-09T08:03:43.787Z,0.43
2023-01-09T08:06:16.502Z,0.60
2023-01-09T08:08:48.682Z,0.50
2023-01-09T08:11:20.856Z,0.50
2023-01-09T08:13:53.306Z,0.50
2023-01-09T08:16:25.358Z,0.50
2023-01-09T08:18:57.569Z,0.47
2023-01-09T08:21:29.760Z,0.50
2023-01-09T08:24:02.153Z,0.45
2023-01-09T08:26:34.648Z,0.63
2023-01-09T08:29:06.875Z,0.60
2023-01-09T08:31:38.952Z,0.50
2023-01-09T08:34:11.190Z,0.55
2023-01-09T08:36:43.230Z,0.60
2023-01-09T08:39:15.705Z,0.90
2023-01-09T08:42:06.637Z,0.75
2023-01-09T08:44:57.265Z,0.68
2023-01-09T08:47:33.442Z,0.60
2023-01-09T08:50:05.842Z,0.90
2023-01-09T08:52:37.857Z,0.70
2023-01-09T08:55:09.954Z,0.80
2023-01-09T08:57:52.861Z,0.60
2023-01-09T09:00:25.431Z,0.60
2023-01-09T09:02:59.108Z,0.63
2023-01-09T09:05:32.892Z,0.50
2023-01-09T09:08:06.646Z,0.60
2023-01-09T09:10:38.911Z,0.88
2023-01-09T09:13:11.024Z,0.60
2023-01-09T09:15:43.278Z,0.70
2023-01-09T09:18:15.467Z,0.50
2023-01-09T09:20:47.655Z,0.65
2023-01-09T09:23:19.637Z,1.05
2023-01-09T09:25:51.697Z,0.65
2023-01-09T09:28:23.772Z,0.65
2023-01-09T09:30:55.840Z,1.30
2023-01-09T09:33:27.976Z,1.40
2023-01-09T09:36:00.718Z,1.25
2023-01-09T09:38:32.863Z,2.30
2023-01-09T09:41:41.714Z,1.20
2023-01-09T09:44:53.497Z,2.42
2023-01-09T09:47:47.412Z,2.30
2023-01-09T09:50:39.174Z,2.50
2023-01-09T09:53:32.412Z,2.40
2023-01-09T09:56:05.722Z,0.98
2023-01-09T09:58:44.488Z,1.08
2023-01-09T10:01:22.914Z,1.63
2023-01-09T10:04:01.532Z,1.45
2023-01-09T10:06:41.689Z,1.60
2023-01-09T10:09:13.706Z,0.85
2023-01-09T10:11:49.969Z,1.05
2023-01-09T10:14:24.704Z,1.60
2023-01-09T10:17:19.891Z,1.10
2023-01-09T10:20:04.201Z,1.15
2023-01-09T10:23:02.850Z,1.50
2023-01-09T10:26:17.144Z,1.60
